createdAt,value
2018-09-07T00:01:02.511Z,12.40
2018-09-07T00:03:30.538Z,12.90
2018-09-07T00:05:58.853Z,13.87
2018-09-07T00:08:28.417Z,12.77
2018-09-07T00:10:56.558Z,13.60
2018-09-07T00:13:24.628Z,14.17
2018-09-07T00:15:52.702Z,13.67
2018-09-07T00:18:20.766Z,13.30
2018-09-07T00:20:48.867Z,13.83
2018-09-07T00:23:16.974Z,13.33
2018-09-07T00:25:45.057Z,12.80
2018-09-07T00:28:13.154Z,12.73
2018-09-07T00:30:41.260Z,12.10
2018-09-07T00:33:09.506Z,14.43
2018-09-07T00:35:37.679Z,13.33
2018-09-07T00:38:06.538Z,12.77
2018-09-07T00:40:34.887Z,13.83
2018-09-07T00:43:02.998Z,13.07
2018-09-07T00:45:31.128Z,14.27
2018-09-07T00:47:59.176Z,14.17
2018-09-07T00:50:27.236Z,15.90
2018-09-07T00:52:55.413Z,16.27
2018-09-07T00:55:23.523Z,17.33
2018-09-07T00:57:51.606Z,15.97
2018-09-07T01:00:21.067Z,15.50
2018-09-07T01:02:50.335Z,16.57
2018-09-07T01:05:18.881Z,16.57
2018-09-07T01:07:47.069Z,17.10
2018-09-07T01:10:15.587Z,16.67
2018-09-07T01:12:44.789Z,16.10
2018-09-07T01:15:13.211Z,16.07
2018-09-07T01:17:42.328Z,18.07
2018-09-07T01:20:12.284Z,18.77
2018-09-07T01:22:40.574Z,18.37
2018-09-07T01:25:11.051Z,17.80
2018-09-07T01:27:39.841Z,20.60
2018-09-07T01:30:08.491Z,20.93
2018-09-07T01:32:42.263Z,22.80
2018-09-07T01:35:11.527Z,23.73
2018-09-07T01:37:45.567Z,22.37
2018-09-07T01:40:14.200Z,25.27
2018-09-07T01:42:42.865Z,25.43
2018-09-07T01:45:12.297Z,25.97
2018-09-07T01:47:41.495Z,24.20
2018-09-07T01:50:09.723Z,27.83
2018-09-07T01:52:38.376Z,26.30
2018-09-07T01:55:08.288Z,27.63
2018-09-07T01:57:36.654Z,28.17
2018-09-07T02:00:05.139Z,28.13
2018-09-07T02:02:34.499Z,28.83
2018-09-07T02:05:03.128Z,27.83
2018-09-07T02:07:33.291Z,28.93
2018-09-07T02:10:02.083Z,30.40
2018-09-07T02:12:31.017Z,29.57
2018-09-07T02:15:04.227Z,30.50
2018-09-07T02:17:36.444Z,30.67
2018-09-07T02:20:05.052Z,34.40
2018-09-07T02:22:33.163Z,34.03
2018-09-07T02:25:02.457Z,32.27
2018-09-07T02:27:30.884Z,34.03
2018-09-07T02:29:59.151Z,36.27
2018-09-07T02:32:27.723Z,34.80
2018-09-07T02:34:56.324Z,36.50
2018-09-07T02:37:25.056Z,37.10
2018-09-07T02:42:33.754Z,38.97
2018-09-07T02:45:02.423Z,39.17
2018-09-07T02:47:32.533Z,38.73
2018-09-07T02:50:02.252Z,38.63
2018-09-07T02:52:31.741Z,38.33
2018-09-07T02:55:01.356Z,38.63
2018-09-07T02:57:29.806Z,37.03
2018-09-07T02:59:58.438Z,38.90
2018-09-07T03:02:27.451Z,39.07
2018-09-07T03:04:55.902Z,39.57
2018-09-07T03:07:25.476Z,41.00
2018-09-07T03:09:54.108Z,38.40
2018-09-07T03:12:23.943Z,39.67
2018-09-07T03:14:54.540Z,40.33
2018-09-07T03:17:24.829Z,43.17
2018-09-07T03:19:54.565Z,42.17
2018-09-07T03:22:23.716Z,39.70
2018-09-07T03:24:52.174Z,39.50
2018-09-07T03:27:20.791Z,41.33
2018-09-07T03:29:49.222Z,42.87
2018-09-07T03:32:18.692Z,40.63
2018-09-07T03:34:47.204Z,41.27
2018-09-07T03:37:15.716Z,41.73
2018-09-07T03:39:44.628Z,42.37
2018-09-07T03:42:13.169Z,41.00
2018-09-07T03:44:41.641Z,41.20
2018-09-07T03:47:10.761Z,41.33
2018-09-07T03:49:39.167Z,40.70
2018-09-07T03:52:07.789Z,39.77
2018-09-07T03:54:36.283Z,41.30
2018-09-07T03:57:04.791Z,42.60
2018-09-07T03:59:34.049Z,43.97
2018-09-07T04:02:02.569Z,45.13
2018-09-07T04:04:32.537Z,41.93
2018-09-07T04:07:01.639Z,47.90
2018-09-07T04:09:30.768Z,48.30
2018-09-07T04:12:00.346Z,51.00
2018-09-07T04:14:28.974Z,51.80
2018-09-07T04:16:57.522Z,51.70
2018-09-07T04:19:27.646Z,52.87
2018-09-07T04:21:56.444Z,57.97
2018-09-07T04:24:30.456Z,56.47
2018-09-07T04:26:59.896Z,55.97
2018-09-07T04:29:34.589Z,55.33
2018-09-07T04:32:07.404Z,59.63
2018-09-07T04:34:36.011Z,60.27
2018-09-07T04:37:07.156Z,60.30
2018-09-07T04:39:36.044Z,57.90
2018-09-07T04:42:04.592Z,61.83
2018-09-07T04:44:33.831Z,58.67
2018-09-07T04:47:02.858Z,56.27
2018-09-07T04:49:31.474Z,61.17
2018-09-07T04:52:00.172Z,59.80
2018-09-07T04:54:28.682Z,60.37
2018-09-07T04:56:58.440Z,61.63
2018-09-07T04:59:27.709Z,64.77
2018-09-07T05:01:56.476Z,62.10
2018-09-07T05:04:26.479Z,64.47
2018-09-07T05:06:55.035Z,60.10
2018-09-07T05:09:24.754Z,63.07
2018-09-07T05:11:54.993Z,60.83
2018-09-07T05:14:23.389Z,58.10
2018-09-07T05:16:52.345Z,54.50
2018-09-07T05:19:20.723Z,55.30
2018-09-07T05:21:49.128Z,50.80
2018-09-07T05:24:17.552Z,42.47
2018-09-07T05:26:45.901Z,48.33
2018-09-07T05:29:14.436Z,48.03
2018-09-07T05:31:43.053Z,44.20
2018-09-07T05:34:11.608Z,44.17
2018-09-07T05:36:40.014Z,49.83
2018-09-07T05:39:10.106Z,27.33
2018-09-07T05:41:38.718Z,22.87
2018-09-07T05:44:06.955Z,23.90
2018-09-07T05:46:35.452Z,24.70
2018-09-07T05:49:03.820Z,20.50
2018-09-07T05:51:32.346Z,20.93
2018-09-07T05:54:01.078Z,25.43
2018-09-07T05:56:29.566Z,17.00
2018-09-07T05:58:57.940Z,14.87
2018-09-07T06:01:26.349Z,11.87
2018-09-07T06:03:54.691Z,14.10
2018-09-07T06:06:23.109Z,14.73
2018-09-07T06:08:51.471Z,11.77
2018-09-07T06:11:19.947Z,14.60
2018-09-07T06:13:48.515Z,14.60
2018-09-07T06:16:16.844Z,12.67
2018-09-07T06:18:45.278Z,13.87
2018-09-07T06:21:13.828Z,11.17
2018-09-07T06:23:42.576Z,13.77
2018-09-07T06:26:11.570Z,10.47
2018-09-07T06:28:39.883Z,13.27
2018-09-07T06:31:08.507Z,10.70
2018-09-07T06:33:37.069Z,9.30
2018-09-07T06:36:05.776Z,10.20
2018-09-07T06:38:34.246Z,10.93
2018-09-07T06:41:02.506Z,12.73
2018-09-07T06:43:30.980Z,11.73
2018-09-07T06:45:59.279Z,12.13
2018-09-07T06:48:27.612Z,14.30
2018-09-07T06:50:56.299Z,13.20
2018-09-07T06:53:24.657Z,14.60
2018-09-07T06:55:52.992Z,13.97
2018-09-07T06:58:21.906Z,16.50
2018-09-07T07:00:50.322Z,16.67
2018-09-07T07:03:18.913Z,16.60
2018-09-07T07:05:47.274Z,16.23
2018-09-07T07:08:15.801Z,15.10
2018-09-07T07:10:44.107Z,16.07
2018-09-07T07:13:12.483Z,14.87
2018-09-07T07:15:41.039Z,12.57
2018-09-07T07:18:09.505Z,10.60
2018-09-07T07:20:37.943Z,7.30
2018-09-07T07:23:06.397Z,7.10
2018-09-07T07:25:34.796Z,6.40
2018-09-07T07:28:03.480Z,6.17
2018-09-07T07:30:31.854Z,5.23
2018-09-07T07:33:00.236Z,6.00
2018-09-07T07:35:28.756Z,6.20
2018-09-07T07:37:57.441Z,4.40
2018-09-07T07:40:25.970Z,5.00
2018-09-07T07:42:54.333Z,5.00
2018-09-07T07:45:22.717Z,5.17
2018-09-07T07:47:51.205Z,5.10
2018-09-07T07:50:19.616Z,4.00
2018-09-07T07:52:47.990Z,4.67
2018-09-07T07:55:16.339Z,4.37
2018-09-07T07:57:44.746Z,3.80
2018-09-07T08:00:12.810Z,4.33
2018-09-07T08:02:41.130Z,3.87
2018-09-07T08:05:09.528Z,4.00
2018-09-07T08:07:37.875Z,3.00
2018-09-07T08:10:06.483Z,2.67
2018-09-07T08:12:34.922Z,2.73
2018-09-07T08:15:03.255Z,2.67
2018-09-07T08:17:31.866Z,2.57
2018-09-07T08:20:00.324Z,2.33
2018-09-07T08:22:28.706Z,2.30
2018-09-07T08:24:56.722Z,2.60
2018-09-07T08:27:25.138Z,3.30
2018-09-07T08:29:53.529Z,3.50
2018-09-07T08:32:21.974Z,2.80
2018-09-07T08:34:50.441Z,2.70
2018-09-07T08:37:18.811Z,2.90
2018-09-07T08:39:47.132Z,3.07
2018-09-07T08:42:15.786Z,3.27
2018-09-07T08:44:44.309Z,2.83
2018-09-07T08:47:12.704Z,3.10
2018-09-07T08:49:41.020Z,2.93
2018-09-07T08:52:09.606Z,2.50
2018-09-07T08:54:38.360Z,2.03
2018-09-07T08:57:06.745Z,1.30
2018-09-07T08:59:34.770Z,1.90
2018-09-07T09:02:03.232Z,1.13
2018-09-07T09:04:31.546Z,1.57
2018-09-07T09:07:00.123Z,1.23
2018-09-07T09:09:28.459Z,1.60
2018-09-07T09:11:56.835Z,1.70
2018-09-07T09:14:25.374Z,1.30
2018-09-07T09:16:53.731Z,1.33
2018-09-07T09:19:22.112Z,1.33
2018-09-07T09:21:50.549Z,1.30
2018-09-07T09:24:19.056Z,1.20
2018-09-07T09:26:47.395Z,1.27
2018-09-07T09:29:15.777Z,1.40
2018-09-07T09:31:44.179Z,1.20
2018-09-07T09:34:12.743Z,1.43
2018-09-07T09:36:41.131Z,1.10
2018-09-07T09:39:10.908Z,1.30
2018-09-07T09:41:39.415Z,1.37
2018-09-07T09:44:08.431Z,1.60
2018-09-07T09:46:37.016Z,1.30
2018-09-07T09:49:05.549Z,0.80
2018-09-07T09:51:33.921Z,1.30
2018-09-07T09:54:03.333Z,1.00
2018-09-07T09:56:31.893Z,1.03
2018-09-07T09:59:00.194Z,1.00
2018-09-07T10:01:34.371Z,1.20
2018-09-07T10:04:07.612Z,0.90
2018-09-07T10:06:36.822Z,0.90
2018-09-07T10:09:10.516Z,1.00
2018-09-07T10:11:39.207Z,0.90
2018-09-07T10:14:07.534Z,1.00
2018-09-07T10:16:36.067Z,0.90
2018-09-07T10:19:04.547Z,1.40
2018-09-07T10:21:32.791Z,1.20
2018-09-07T10:24:01.569Z,0.97
2018-09-07T10:26:30.071Z,0.90
2018-09-07T10:28:58.444Z,0.80
2018-09-07T10:31:26.854Z,0.77
2018-09-07T10:33:55.333Z,1.00
2018-09-07T10:36:23.715Z,0.73
2018-09-07T10:38:52.819Z,0.97
2018-09-07T10:41:21.774Z,0.80
2018-09-07T10:43:50.115Z,1.10
2018-09-07T10:46:18.694Z,1.13
2018-09-07T10:48:47.294Z,1.20
2018-09-07T10:51:15.667Z,1.30
2018-09-07T10:53:44.237Z,1.10
2018-09-07T10:56:12.669Z,0.87
2018-09-07T10:58:41.885Z,1.10
2018-09-07T11:01:11.035Z,0.70
2018-09-07T11:03:40.296Z,0.90
2018-09-07T11:06:10.337Z,0.70
2018-09-07T11:08:39.344Z,1.13
2018-09-07T11:11:08.808Z,0.87
2018-09-07T11:13:37.864Z,0.90
2018-09-07T11:16:07.144Z,1.00
2018-09-07T11:18:36.099Z,0.93
2018-09-07T11:21:05.200Z,1.00
2018-09-07T11:23:34.524Z,1.07
2018-09-07T11:26:03.304Z,1.10
2018-09-07T11:28:31.997Z,0.87
2018-09-07T11:31:00.957Z,0.90
2018-09-07T11:33:31.347Z,0.80
2018-09-07T11:36:02.920Z,1.13
2018-09-07T11:38:31.861Z,0.80
2018-09-07T11:41:02.627Z,0.90
2018-09-07T11:43:32.369Z,0.97
2018-09-07T11:46:04.605Z,1.40
2018-09-07T11:48:34.477Z,1.00
2018-09-07T11:51:03.199Z,1.27
2018-09-07T11:53:32.366Z,0.90
2018-09-07T11:56:01.063Z,0.97
2018-09-07T11:58:30.475Z,0.93
2018-09-07T12:01:00.009Z,1.10
2018-09-07T12:03:28.672Z,0.80
2018-09-07T12:05:57.894Z,1.13
2018-09-07T12:08:27.072Z,1.17
2018-09-07T12:10:59.673Z,1.20
2018-09-07T12:13:28.523Z,1.00
2018-09-07T12:15:57.695Z,0.87
2018-09-07T12:18:26.761Z,1.00
2018-09-07T12:20:55.638Z,0.80
2018-09-07T12:23:24.502Z,0.80
2018-09-07T12:25:53.005Z,0.90
2018-09-07T12:28:22.554Z,0.80
2018-09-07T12:30:51.141Z,1.10
2018-09-07T12:33:19.670Z,1.17
2018-09-07T12:35:49.408Z,1.17
2018-09-07T12:38:18.656Z,0.70
2018-09-07T12:40:47.144Z,1.00
2018-09-07T12:43:17.029Z,0.80
2018-09-07T12:45:46.172Z,0.80
2018-09-07T12:48:14.772Z,1.20
2018-09-07T12:50:43.567Z,0.80
2018-09-07T12:53:12.182Z,0.90
2018-09-07T12:55:40.710Z,0.90
2018-09-07T12:58:09.252Z,0.77
2018-09-07T13:00:37.742Z,0.87
2018-09-07T13:03:06.589Z,1.20
2018-09-07T13:05:42.423Z,1.07
2018-09-07T13:08:12.610Z,0.70
2018-09-07T13:10:41.885Z,1.17
2018-09-07T13:13:10.638Z,0.90
2018-09-07T13:15:39.218Z,0.77
2018-09-07T13:18:07.825Z,0.50
2018-09-07T13:20:39.148Z,1.10
2018-09-07T13:23:07.746Z,0.67
2018-09-07T13:25:36.402Z,0.70
2018-09-07T13:28:06.935Z,1.40
2018-09-07T13:30:36.367Z,0.70
2018-09-07T13:33:08.476Z,1.10
2018-09-07T13:35:44.486Z,0.70
2018-09-07T13:38:14.741Z,0.97
2018-09-07T13:40:43.213Z,0.93
2018-09-07T13:43:11.875Z,0.80
2018-09-07T13:45:40.256Z,0.63
2018-09-07T13:48:18.949Z,0.90
2018-09-07T13:50:47.655Z,0.97
2018-09-07T13:53:16.385Z,1.00
2018-09-07T13:55:45.141Z,0.97
2018-09-07T13:58:14.393Z,0.83
2018-09-07T14:00:43.103Z,0.60
2018-09-07T14:03:11.924Z,0.90
2018-09-07T14:05:40.665Z,0.87
2018-09-07T14:08:09.504Z,0.90
2018-09-07T14:10:39.714Z,1.10
2018-09-07T14:13:08.605Z,1.00
2018-09-07T14:15:37.366Z,0.80
2018-09-07T14:18:07.520Z,1.03
2018-09-07T14:20:38.480Z,0.90
2018-09-07T14:23:07.666Z,0.80
2018-09-07T14:25:36.213Z,0.80
2018-09-07T14:28:09.229Z,0.83
2018-09-07T14:30:39.063Z,0.80
2018-09-07T14:33:10.805Z,1.60
2018-09-07T14:38:20.604Z,0.83
2018-09-07T14:40:51.964Z,0.70
2018-09-07T14:43:20.809Z,0.87
2018-09-07T14:45:50.639Z,0.90
2018-09-07T14:48:22.425Z,0.90
2018-09-07T14:50:52.864Z,0.70
2018-09-07T14:53:22.440Z,0.90
2018-09-07T14:55:52.202Z,1.27
2018-09-07T14:58:23.947Z,0.97
2018-09-07T15:00:54.326Z,1.10
2018-09-07T15:03:23.818Z,0.90
2018-09-07T15:05:52.485Z,0.80
2018-09-07T15:08:21.191Z,0.80
2018-09-07T15:10:49.631Z,0.80
2018-09-07T15:13:18.916Z,1.10
2018-09-07T15:15:47.641Z,0.90
2018-09-07T15:18:17.022Z,1.10
2018-09-07T15:20:45.772Z,1.17
2018-09-07T15:23:14.277Z,1.17
2018-09-07T15:25:42.833Z,1.03
2018-09-07T15:28:12.086Z,1.13
2018-09-07T15:30:40.716Z,1.10
2018-09-07T15:33:09.207Z,1.00
2018-09-07T15:35:38.091Z,0.60
2018-09-07T15:38:06.572Z,0.90
2018-09-07T15:40:35.141Z,1.00
2018-09-07T15:43:03.530Z,0.93
2018-09-07T15:45:32.060Z,0.83
2018-09-07T15:48:00.504Z,1.00
2018-09-07T15:50:28.874Z,0.83
2018-09-07T15:52:57.288Z,1.43
2018-09-07T15:55:26.791Z,1.00
2018-09-07T15:57:55.488Z,1.20
2018-09-07T16:00:23.936Z,1.00
2018-09-07T16:02:52.712Z,1.20
2018-09-07T16:05:21.283Z,1.00
2018-09-07T16:07:49.969Z,1.33
2018-09-07T16:10:19.424Z,1.00
2018-09-07T16:12:48.117Z,1.20
2018-09-07T16:15:16.823Z,1.00
2018-09-07T16:17:45.725Z,1.20
2018-09-07T16:20:14.462Z,1.50
2018-09-07T16:22:43.781Z,1.67
2018-09-07T16:25:12.490Z,1.13
2018-09-07T16:27:41.456Z,1.30
2018-09-07T16:30:11.204Z,1.03
2018-09-07T16:32:41.130Z,1.13
2018-09-07T16:35:10.002Z,1.30
2018-09-07T16:37:38.951Z,1.10
2018-09-07T16:40:07.616Z,1.17
2018-09-07T16:42:36.623Z,1.13
2018-09-07T16:45:05.269Z,1.50
2018-09-07T16:47:34.470Z,1.63
2018-09-07T16:50:02.917Z,1.40
2018-09-07T16:52:31.460Z,0.93
2018-09-07T16:55:00.932Z,1.20
2018-09-07T16:57:29.699Z,1.10
2018-09-07T16:59:58.137Z,1.63
2018-09-07T17:02:27.061Z,1.33
2018-09-07T17:04:55.951Z,1.17
2018-09-07T17:07:24.346Z,1.10
2018-09-07T17:09:52.923Z,1.40
2018-09-07T17:12:21.490Z,1.23
2018-09-07T17:14:50.209Z,1.60
2018-09-07T17:17:19.092Z,1.70
2018-09-07T17:19:47.850Z,1.00
2018-09-07T17:22:16.468Z,1.33
2018-09-07T17:24:45.373Z,1.10
2018-09-07T17:27:14.371Z,1.30
2018-09-07T17:29:42.945Z,1.40
2018-09-07T17:32:12.345Z,1.80
2018-09-07T17:34:40.862Z,1.00
2018-09-07T17:37:09.771Z,1.07
2018-09-07T17:39:38.478Z,1.20
2018-09-07T17:42:07.209Z,1.17
2018-09-07T17:44:35.915Z,1.10
2018-09-07T17:47:06.172Z,1.33
2018-09-07T17:49:34.680Z,1.40
2018-09-07T17:52:03.534Z,1.00
2018-09-07T17:54:32.809Z,1.23
2018-09-07T17:57:01.750Z,1.10
2018-09-07T17:59:30.712Z,1.30
2018-09-07T18:01:59.329Z,1.33
2018-09-07T18:04:29.640Z,1.20
2018-09-07T18:06:59.099Z,1.70
2018-09-07T18:12:03.334Z,1.17
2018-09-07T18:14:32.193Z,1.40
2018-09-07T18:17:01.113Z,1.27
2018-09-07T18:19:29.844Z,1.77
2018-09-07T18:21:58.180Z,1.30
2018-09-07T18:24:27.377Z,1.37
2018-09-07T18:26:55.778Z,1.50
2018-09-07T18:29:24.532Z,1.30
2018-09-07T18:31:53.306Z,1.40
2018-09-07T18:34:22.073Z,1.50
2018-09-07T18:36:50.849Z,1.63
2018-09-07T18:39:20.821Z,1.80
2018-09-07T18:41:49.505Z,1.50
2018-09-07T18:44:18.281Z,1.20
2018-09-07T18:46:47.019Z,1.53
2018-09-07T18:49:17.435Z,1.70
2018-09-07T18:51:51.371Z,1.67
2018-09-07T18:54:19.959Z,1.50
2018-09-07T18:56:48.585Z,1.33
2018-09-07T18:59:17.305Z,1.57
2018-09-07T19:01:45.784Z,2.07
2018-09-07T19:04:14.840Z,1.50
2018-09-07T19:06:43.578Z,1.70
2018-09-07T19:09:12.103Z,1.50
2018-09-07T19:11:40.982Z,1.50
2018-09-07T19:14:09.670Z,1.40
2018-09-07T19:16:38.540Z,2.00
2018-09-07T19:19:07.362Z,1.60
2018-09-07T19:21:37.759Z,1.37
2018-09-07T19:24:06.413Z,1.50
2018-09-07T19:26:35.385Z,1.70
2018-09-07T19:29:04.195Z,1.87
2018-09-07T19:31:32.682Z,1.60
2018-09-07T19:34:01.276Z,1.80
2018-09-07T19:36:30.124Z,2.00
2018-09-07T19:38:58.865Z,1.80
2018-09-07T19:41:27.334Z,1.70
2018-09-07T19:43:55.745Z,1.73
2018-09-07T19:46:24.288Z,1.90
2018-09-07T19:48:53.262Z,1.37
2018-09-07T19:51:21.732Z,1.70
2018-09-07T19:53:50.127Z,1.40
2018-09-07T19:56:18.530Z,1.70
2018-09-07T19:58:47.041Z,1.63
2018-09-07T20:01:15.596Z,2.13
2018-09-07T20:03:44.147Z,1.50
2018-09-07T20:06:12.543Z,1.80
2018-09-07T20:08:41.832Z,1.70
2018-09-07T20:11:10.398Z,2.80
2018-09-07T20:13:39.118Z,2.13
2018-09-07T20:16:07.734Z,1.40
2018-09-07T20:18:37.059Z,1.50
2018-09-07T20:23:41.251Z,1.80
2018-09-07T20:26:09.904Z,1.47
2018-09-07T20:28:40.181Z,1.60
2018-09-07T20:31:08.818Z,2.40
2018-09-07T20:33:38.553Z,1.60
2018-09-07T20:36:07.616Z,1.70
2018-09-07T20:38:37.427Z,1.90
2018-09-07T20:41:06.307Z,1.67
2018-09-07T20:43:35.119Z,2.37
2018-09-07T20:46:03.897Z,2.27
2018-09-07T20:48:32.533Z,1.53
2018-09-07T20:51:02.333Z,2.00
2018-09-07T20:53:31.637Z,1.90
2018-09-07T20:56:01.307Z,2.00
2018-09-07T20:58:30.687Z,1.80
2018-09-07T21:00:59.230Z,1.90
2018-09-07T21:03:28.292Z,1.93
2018-09-07T21:05:58.311Z,2.00
2018-09-07T21:08:26.822Z,2.20
2018-09-07T21:10:56.396Z,1.83
2018-09-07T21:13:25.696Z,1.77
2018-09-07T21:15:54.775Z,1.70
2018-09-07T21:18:23.255Z,2.00
2018-09-07T21:20:51.910Z,1.70
2018-09-07T21:23:21.833Z,2.20
2018-09-07T21:25:51.577Z,1.70
2018-09-07T21:28:20.565Z,1.90
2018-09-07T21:30:50.079Z,1.90
2018-09-07T21:33:18.620Z,2.10
2018-09-07T21:35:48.049Z,2.13
2018-09-07T21:38:16.732Z,1.93
2018-09-07T21:40:45.352Z,2.73
2018-09-07T21:43:13.924Z,1.83
2018-09-07T21:45:43.183Z,1.80
2018-09-07T21:48:11.880Z,1.67
2018-09-07T21:50:41.311Z,1.90
2018-09-07T21:53:10.635Z,2.20
2018-09-07T21:55:39.326Z,2.17
2018-09-07T21:58:08.819Z,2.47
2018-09-07T22:00:37.466Z,2.00
2018-09-07T22:03:06.172Z,2.20
2018-09-07T22:05:34.685Z,2.10
2018-09-07T22:08:04.094Z,2.43
2018-09-07T22:10:32.672Z,2.40
2018-09-07T22:13:01.408Z,2.40
2018-09-07T22:15:29.845Z,2.10
2018-09-07T22:17:58.449Z,2.70
2018-09-07T22:20:27.194Z,2.20
2018-09-07T22:22:55.649Z,2.13
2018-09-07T22:25:24.200Z,2.10
2018-09-07T22:27:52.737Z,2.30
2018-09-07T22:30:22.515Z,2.50
2018-09-07T22:32:50.960Z,2.20
2018-09-07T22:35:26.144Z,2.90
2018-09-07T22:37:54.644Z,2.70
2018-09-07T22:40:23.107Z,3.07
2018-09-07T22:42:51.739Z,2.70
2018-09-07T22:45:20.779Z,2.57
2018-09-07T22:47:49.279Z,3.10
2018-09-07T22:50:17.730Z,2.50
2018-09-07T22:52:46.154Z,3.30
2018-09-07T22:55:15.176Z,3.20
2018-09-07T22:57:43.615Z,2.87
2018-09-07T23:00:11.707Z,3.33
2018-09-07T23:02:40.286Z,2.93
2018-09-07T23:05:08.665Z,2.87
2018-09-07T23:07:40.697Z,3.40
2018-09-07T23:10:09.535Z,3.10
2018-09-07T23:12:38.021Z,3.27
2018-09-07T23:15:06.549Z,3.50
2018-09-07T23:17:35.060Z,3.87
2018-09-07T23:20:03.669Z,3.60
2018-09-07T23:22:32.054Z,4.07
2018-09-07T23:25:00.579Z,3.57
2018-09-07T23:27:28.617Z,3.90
2018-09-07T23:29:57.015Z,3.70
2018-09-07T23:32:25.919Z,3.37
2018-09-07T23:34:54.502Z,3.70
2018-09-07T23:37:23.268Z,3.20
2018-09-07T23:39:51.720Z,3.87
2018-09-07T23:42:20.176Z,3.90
2018-09-07T23:44:48.775Z,3.90
2018-09-07T23:47:17.263Z,4.30
2018-09-07T23:49:45.803Z,4.30
2018-09-07T23:52:14.291Z,4.00
2018-09-07T23:54:42.890Z,4.30
2018-09-07T23:57:12.200Z,3.97
2018-09-07T23:59:40.741Z,4.60
